Time;durP1;ratioP1;P1;durP2;ratioP2;P2;SDS_P1;SDS_P2;PMS_P1;PMS_P2;Temp;Humidity;BMP_temperature;BMP_pressure;BME280_temperature;BME280_humidity;BME280_pressure;Samples;Min_cycle;Max_cycle;Signal;HPM_P1;HPM_P2
2021/07/03 00:01:11;;;;;;;19.10;15.80;;;15.30;99.90;;;;;;5073607;28;20247;-69
2021/07/03 00:03:36;;;;;;;18.60;16.70;;;15.40;99.90;;;;;;5058341;28;20213;-69
2021/07/03 00:06:02;;;;;;;18.87;16.80;;;15.30;99.90;;;;;;5053563;28;20171;-69
2021/07/03 00:08:28;;;;;;;21.17;16.20;;;15.30;99.90;;;;;;5053497;28;20236;-69
2021/07/03 00:10:55;;;;;;;19.17;17.20;;;15.30;99.90;;;;;;5053317;28;20534;-69
2021/07/03 00:13:21;;;;;;;21.73;17.83;;;15.30;99.90;;;;;;5053447;28;20401;-69
2021/07/03 00:15:47;;;;;;;21.33;17.87;;;15.20;99.90;;;;;;5054044;28;20477;-69
2021/07/03 00:18:13;;;;;;;17.17;15.20;;;15.20;99.90;;;;;;5053157;28;20905;-69
2021/07/03 00:20:39;;;;;;;19.13;17.27;;;15.10;99.90;;;;;;5053368;28;20158;-69
2021/07/03 00:23:05;;;;;;;19.10;16.17;;;15.10;99.90;;;;;;5053060;28;20951;-69
2021/07/03 00:25:31;;;;;;;18.60;16.60;;;15.10;99.90;;;;;;5052912;28;20403;-69
2021/07/03 00:27:57;;;;;;;17.00;15.30;;;15.10;99.90;;;;;;5052276;28;20401;-69
2021/07/03 00:30:23;;;;;;;19.63;17.53;;;15.10;99.90;;;;;;5053067;28;20623;-69
2021/07/03 00:32:48;;;;;;;21.50;16.67;;;15.10;99.90;;;;;;5055153;28;20548;-69
2021/07/03 00:35:14;;;;;;;18.97;16.97;;;15.00;99.90;;;;;;5053034;28;20493;-69
2021/07/03 00:37:40;;;;;;;18.40;16.70;;;15.00;99.90;;;;;;5052927;28;20158;-69
2021/07/03 00:40:07;;;;;;;19.10;16.90;;;15.00;99.90;;;;;;5052967;28;20401;-69
2021/07/03 00:42:33;;;;;;;19.00;17.00;;;15.00;99.90;;;;;;5061998;28;20172;-69
2021/07/03 00:44:59;;;;;;;17.90;16.10;;;15.00;99.90;;;;;;5072621;28;20503;-69
2021/07/03 00:47:25;;;;;;;16.17;14.57;;;15.00;99.90;;;;;;5073029;28;20402;-69
2021/07/03 00:49:50;;;;;;;17.00;14.90;;;15.00;99.90;;;;;;5066523;28;20894;-69
2021/07/03 00:52:16;;;;;;;15.03;13.63;;;15.00;99.90;;;;;;5052679;28;20157;-69
2021/07/03 00:54:44;;;;;;;20.03;16.70;;;15.00;99.90;;;;;;5054507;28;20184;-69
2021/07/03 00:57:10;;;;;;;16.83;15.13;;;15.00;99.90;;;;;;5072684;28;20152;-69
2021/07/03 00:59:38;;;;;;;22.03;15.90;;;14.90;99.90;;;;;;5072646;28;20778;-69
2021/07/03 01:02:06;;;;;;;20.63;16.33;;;14.90;99.90;;;;;;5068546;28;20524;-69
2021/07/03 01:04:31;;;;;;;20.07;17.27;;;14.90;99.90;;;;;;5063389;28;20671;-69
2021/07/03 01:06:57;;;;;;;18.97;17.13;;;14.90;99.90;;;;;;5057243;28;20494;-69
2021/07/03 01:09:23;;;;;;;17.00;15.20;;;14.90;99.90;;;;;;5072231;28;20160;-69
2021/07/03 01:11:50;;;;;;;19.17;17.10;;;14.90;99.90;;;;;;5072286;28;20630;-69
2021/07/03 01:14:15;;;;;;;17.83;15.93;;;14.80;99.90;;;;;;5072406;28;20159;-69
2021/07/03 01:16:43;;;;;;;18.20;16.40;;;14.80;99.90;;;;;;5072449;28;20390;-69
2021/07/03 01:19:09;;;;;;;21.10;17.30;;;14.80;99.90;;;;;;5072400;28;20167;-69
2021/07/03 01:21:35;;;;;;;19.53;17.47;;;14.80;99.90;;;;;;5072412;28;20877;-69
2021/07/03 01:24:00;;;;;;;17.87;15.60;;;14.80;99.90;;;;;;5064251;28;20488;-69
2021/07/03 01:26:26;;;;;;;19.20;16.57;;;14.80;99.90;;;;;;5052249;28;20225;-69
2021/07/03 01:28:51;;;;;;;20.73;18.67;;;14.80;99.90;;;;;;5052466;28;20153;-69
2021/07/03 01:31:17;;;;;;;18.90;16.90;;;14.80;99.90;;;;;;5052241;28;20165;-69
2021/07/03 01:33:43;;;;;;;17.90;16.00;;;14.70;99.90;;;;;;5052303;28;20193;-69
2021/07/03 01:36:08;;;;;;;19.37;16.40;;;14.70;99.90;;;;;;5071241;28;20177;-69
2021/07/03 01:38:34;;;;;;;18.70;15.97;;;14.70;99.90;;;;;;5058691;28;20643;-69
2021/07/03 01:41:00;;;;;;;20.10;15.53;;;14.70;99.90;;;;;;5059101;28;20180;-69
2021/07/03 01:43:27;;;;;;;18.07;16.13;;;14.60;99.90;;;;;;5071983;28;20215;-69
2021/07/03 01:45:55;;;;;;;19.70;17.40;;;14.60;99.90;;;;;;5072533;28;20192;-69
2021/07/03 01:48:26;;;;;;;17.77;15.80;;;14.60;99.90;;;;;;5071942;28;20454;-69
2021/07/03 01:50:52;;;;;;;20.77;17.80;;;14.60;99.90;;;;;;5071862;28;20401;-69
2021/07/03 01:53:18;;;;;;;18.57;16.50;;;14.60;99.90;;;;;;5071689;28;20408;-69
2021/07/03 01:55:43;;;;;;;17.97;16.03;;;14.60;99.90;;;;;;5071756;28;20922;-69
2021/07/03 01:58:14;;;;;;;17.03;15.27;;;14.60;99.90;;;;;;5071246;28;20258;-69
2021/07/03 02:00:39;;;;;;;17.43;15.70;;;14.50;99.90;;;;;;5072182;28;20155;-69
2021/07/03 02:03:05;;;;;;;17.47;15.83;;;14.50;99.90;;;;;;5070162;28;20449;-70
2021/07/03 02:05:30;;;;;;;16.83;15.13;;;14.50;99.90;;;;;;5071589;28;20629;-70
2021/07/03 02:07:56;;;;;;;17.20;15.40;;;14.50;99.90;;;;;;5071670;28;20194;-69
2021/07/03 02:10:21;;;;;;;19.30;15.50;;;14.50;99.90;;;;;;5071651;28;20151;-69
2021/07/03 02:12:47;;;;;;;17.00;15.30;;;14.40;99.90;;;;;;5072095;28;20179;-69
2021/07/03 02:15:12;;;;;;;16.40;14.73;;;14.40;99.90;;;;;;5062925;28;20178;-69
2021/07/03 02:17:38;;;;;;;18.20;16.40;;;14.40;99.90;;;;;;5052076;28;20163;-70
2021/07/03 02:20:04;;;;;;;17.83;15.50;;;14.40;99.90;;;;;;5051551;28;20161;-71
2021/07/03 02:22:30;;;;;;;19.97;16.57;;;14.40;99.90;;;;;;5051569;28;20539;-70
2021/07/03 02:24:55;;;;;;;18.10;15.30;;;14.40;99.90;;;;;;5051541;28;20443;-70
2021/07/03 02:27:21;;;;;;;17.60;15.80;;;14.40;99.90;;;;;;5051523;28;20605;-70
2021/07/03 02:29:46;;;;;;;18.07;16.17;;;14.30;99.90;;;;;;5051959;28;20262;-71
2021/07/03 02:32:12;;;;;;;18.20;16.43;;;14.30;99.90;;;;;;5059174;28;20186;-70
2021/07/03 02:34:38;;;;;;;17.40;15.07;;;14.30;99.90;;;;;;5071417;28;20179;-70
2021/07/03 02:37:04;;;;;;;18.37;16.03;;;14.30;99.90;;;;;;5071402;28;20160;-70
2021/07/03 02:39:29;;;;;;;17.10;15.40;;;14.30;99.90;;;;;;5071604;28;20209;-70
2021/07/03 02:41:55;;;;;;;17.80;15.90;;;14.30;99.90;;;;;;5072004;28;20398;-72
2021/07/03 02:44:20;;;;;;;19.07;17.07;;;14.30;99.90;;;;;;5071476;28;20207;-73
2021/07/03 02:46:46;;;;;;;19.83;17.73;;;14.30;99.90;;;;;;5071321;28;20234;-73
2021/07/03 02:49:12;;;;;;;16.53;14.20;;;14.20;99.90;;;;;;5070568;28;20226;-73
2021/07/03 02:51:38;;;;;;;21.40;16.60;;;14.20;99.90;;;;;;5073620;28;20155;-73
2021/07/03 02:54:03;;;;;;;19.10;15.93;;;14.20;99.90;;;;;;5074928;28;20226;-73
2021/07/03 02:56:29;;;;;;;19.00;17.00;;;14.20;99.90;;;;;;5075870;28;20643;-73
2021/07/03 02:58:54;;;;;;;17.53;15.50;;;14.20;99.90;;;;;;5075386;28;20241;-73
2021/07/03 03:01:20;;;;;;;18.60;14.80;;;14.20;99.90;;;;;;5072195;28;20187;-73
2021/07/03 03:03:46;;;;;;;18.00;16.07;;;14.10;99.90;;;;;;5054597;28;20198;-73
2021/07/03 03:06:12;;;;;;;17.30;15.60;;;14.10;99.90;;;;;;5055294;28;20211;-73
2021/07/03 03:08:38;;;;;;;17.10;15.30;;;14.10;99.90;;;;;;5054805;28;20161;-73
2021/07/03 03:11:03;;;;;;;17.00;15.20;;;14.10;99.90;;;;;;5054765;28;20405;-73
2021/07/03 03:13:29;;;;;;;20.00;16.93;;;14.10;99.90;;;;;;5054634;28;20176;-73
2021/07/03 03:15:54;;;;;;;19.70;17.83;;;14.10;99.90;;;;;;5054524;28;20167;-73
2021/07/03 03:18:20;;;;;;;19.20;16.97;;;14.10;99.90;;;;;;5054977;28;20613;-73
2021/07/03 03:20:46;;;;;;;19.10;17.10;;;14.10;99.90;;;;;;5054602;28;20164;-73
2021/07/03 03:23:11;;;;;;;18.20;16.33;;;14.00;99.90;;;;;;5055023;28;20195;-73
2021/07/03 03:25:37;;;;;;;20.57;18.50;;;14.00;99.90;;;;;;5054756;28;20206;-72
2021/07/03 03:28:02;;;;;;;19.30;16.97;;;14.00;99.90;;;;;;5054785;28;20164;-73
2021/07/03 03:30:28;;;;;;;19.97;17.07;;;14.00;99.90;;;;;;5054215;28;20160;-73
2021/07/03 03:32:54;;;;;;;19.40;17.50;;;14.00;99.90;;;;;;5069351;28;20649;-73
2021/07/03 03:35:19;;;;;;;18.93;16.93;;;14.00;99.90;;;;;;5074384;28;20176;-73
2021/07/03 03:37:45;;;;;;;18.03;16.27;;;14.00;99.90;;;;;;5074242;28;20155;-73
2021/07/03 03:40:11;;;;;;;17.93;16.03;;;14.00;99.90;;;;;;5073277;28;20168;-73
2021/07/03 03:42:37;;;;;;;19.57;17.23;;;14.00;99.90;;;;;;5073998;28;20629;-73
2021/07/03 03:45:05;;;;;;;17.90;16.00;;;14.00;99.90;;;;;;5073516;28;20449;-73
2021/07/03 03:47:31;;;;;;;19.20;15.93;;;14.00;99.90;;;;;;5073888;28;20235;-73
2021/07/03 03:49:56;;;;;;;19.17;17.17;;;14.00;99.90;;;;;;5073730;28;20402;-73
2021/07/03 03:52:22;;;;;;;18.23;16.03;;;14.00;99.90;;;;;;5073951;28;20151;-73
2021/07/03 03:54:48;;;;;;;17.07;15.27;;;14.00;99.90;;;;;;5073725;28;20245;-73
2021/07/03 03:57:29;;;;;;;18.03;16.03;;;14.00;99.90;;;;;;5064564;28;20247;-73
2021/07/03 03:59:56;;;;;;;19.03;15.30;;;14.10;99.90;;;;;;5053440;28;20548;-73
2021/07/03 04:02:23;;;;;;;18.10;16.20;;;14.10;99.90;;;;;;5063892;28;20923;-73
2021/07/03 04:04:50;;;;;;;19.80;15.80;;;14.10;99.90;;;;;;5073598;28;20518;-73
2021/07/03 04:07:19;;;;;;;18.17;16.37;;;14.10;99.90;;;;;;5073660;28;20795;-73
2021/07/03 04:09:44;;;;;;;17.00;15.20;;;14.10;99.90;;;;;;5073389;28;20414;-73
2021/07/03 04:12:10;;;;;;;19.70;17.60;;;14.20;99.90;;;;;;5073624;28;20403;-73
2021/07/03 04:14:36;;;;;;;17.80;16.00;;;14.20;99.90;;;;;;5061036;28;20198;-73
2021/07/03 04:17:02;;;;;;;17.00;15.30;;;14.20;99.90;;;;;;5053485;28;20523;-73
2021/07/03 04:19:27;;;;;;;18.27;16.47;;;14.30;99.90;;;;;;5053722;28;20617;-73
2021/07/03 04:21:53;;;;;;;16.23;14.57;;;14.30;99.90;;;;;;5053352;28;20399;-73
2021/07/03 04:24:18;;;;;;;16.80;14.80;;;14.30;99.90;;;;;;5053503;28;20644;-73
2021/07/03 04:26:44;;;;;;;17.53;15.80;;;14.30;99.90;;;;;;5053491;28;20153;-73
2021/07/03 04:29:10;;;;;;;16.30;14.37;;;14.40;99.90;;;;;;5053374;28;20161;-73
2021/07/03 04:31:35;;;;;;;16.37;14.10;;;14.40;99.90;;;;;;5057312;28;20189;-73
2021/07/03 04:34:01;;;;;;;15.80;14.20;;;14.40;99.90;;;;;;5072869;28;20225;-73
2021/07/03 04:36:26;;;;;;;16.40;14.80;;;14.40;99.90;;;;;;5053570;28;20176;-73
2021/07/03 04:38:52;;;;;;;19.73;17.70;;;14.50;99.90;;;;;;5053012;28;20161;-73
2021/07/03 04:41:17;;;;;;;18.67;15.40;;;14.50;99.90;;;;;;5053006;28;20179;-73
2021/07/03 04:43:43;;;;;;;17.47;15.67;;;14.50;99.90;;;;;;5052760;28;20275;-73
2021/07/03 04:46:08;;;;;;;16.43;14.80;;;14.50;99.90;;;;;;5052698;28;20226;-73
2021/07/03 04:48:34;;;;;;;17.60;15.90;;;14.50;99.90;;;;;;5065242;28;20178;-73
2021/07/03 04:50:59;;;;;;;16.50;14.73;;;14.60;99.90;;;;;;5072831;28;20155;-73
2021/07/03 04:53:25;;;;;;;16.10;14.43;;;14.60;99.90;;;;;;5073355;28;20148;-73
2021/07/03 04:55:50;;;;;;;16.30;14.70;;;14.60;99.90;;;;;;5072828;28;20167;-73
2021/07/03 04:58:16;;;;;;;16.07;14.27;;;14.70;99.90;;;;;;5072793;28;20163;-73
2021/07/03 05:00:45;;;;;;;16.50;14.80;;;14.80;99.90;;;;;;5072578;28;20168;-73
2021/07/03 05:03:10;;;;;;;15.53;14.00;;;14.80;99.90;;;;;;5065751;28;20684;-73
2021/07/03 05:05:36;;;;;;;15.63;13.93;;;14.80;99.90;;;;;;5059802;28;20425;-73
2021/07/03 05:08:01;;;;;;;17.13;14.93;;;14.90;99.90;;;;;;5063111;28;20159;-73
2021/07/03 05:10:27;;;;;;;17.40;15.70;;;14.90;99.90;;;;;;5072714;28;20527;-73
2021/07/03 05:12:54;;;;;;;17.13;15.13;;;14.90;99.90;;;;;;5072738;28;20516;-73
2021/07/03 05:15:20;;;;;;;19.37;15.20;;;15.00;99.90;;;;;;5072599;28;20827;-73
2021/07/03 05:17:45;;;;;;;14.87;13.33;;;15.00;99.90;;;;;;5072794;28;20404;-73
2021/07/03 05:20:12;;;;;;;16.23;14.53;;;15.10;99.90;;;;;;5072914;28;20163;-73
2021/07/03 05:22:37;;;;;;;14.90;13.40;;;15.20;99.90;;;;;;5072139;28;20224;-73
2021/07/03 05:25:03;;;;;;;15.10;13.47;;;15.20;99.90;;;;;;5072203;28;20478;-73
2021/07/03 05:27:29;;;;;;;15.17;13.67;;;15.20;99.90;;;;;;5072433;28;20165;-73
2021/07/03 05:29:55;;;;;;;14.83;13.33;;;15.30;99.90;;;;;;5072291;28;20395;-73
2021/07/03 05:32:21;;;;;;;16.60;14.80;;;15.40;99.90;;;;;;5071545;28;20191;-73
2021/07/03 05:34:46;;;;;;;17.33;15.60;;;15.40;99.90;;;;;;5072073;28;20412;-73
2021/07/03 05:37:12;;;;;;;18.10;16.20;;;15.50;99.90;;;;;;5072871;28;20239;-73
2021/07/03 05:39:37;;;;;;;16.67;14.53;;;15.50;99.90;;;;;;5071845;28;20207;-73
2021/07/03 05:42:03;;;;;;;19.13;13.73;;;15.50;99.90;;;;;;5072434;28;20174;-73
2021/07/03 05:44:29;;;;;;;16.60;14.57;;;15.60;99.90;;;;;;5072172;28;20207;-73
2021/07/03 05:46:55;;;;;;;16.20;14.50;;;15.70;99.90;;;;;;5070617;28;20633;-73
2021/07/03 05:49:20;;;;;;;17.27;15.00;;;15.80;99.90;;;;;;5052026;28;20179;-72
2021/07/03 05:51:46;;;;;;;16.50;12.90;;;15.80;99.90;;;;;;5052566;28;20422;-73
2021/07/03 05:54:12;;;;;;;15.63;14.13;;;15.80;99.90;;;;;;5052036;28;20173;-73
2021/07/03 05:56:38;;;;;;;16.37;13.67;;;15.90;99.90;;;;;;5052466;28;20184;-73
2021/07/03 05:59:04;;;;;;;16.80;13.03;;;15.90;99.90;;;;;;5052044;28;21033;-73
2021/07/03 06:01:29;;;;;;;15.67;13.03;;;15.90;99.90;;;;;;5052343;28;20179;-73
2021/07/03 06:03:55;;;;;;;13.73;12.37;;;16.00;99.90;;;;;;5051916;28;20194;-73
2021/07/03 06:06:20;;;;;;;14.53;13.13;;;16.00;99.90;;;;;;5052308;28;20168;-73
2021/07/03 06:08:46;;;;;;;16.17;13.03;;;16.10;99.90;;;;;;5052244;28;20164;-73
2021/07/03 06:11:13;;;;;;;14.77;13.33;;;16.10;99.90;;;;;;5051929;28;20213;-73
2021/07/03 06:13:39;;;;;;;14.67;13.17;;;16.20;99.90;;;;;;5052521;28;20452;-73
2021/07/03 06:16:05;;;;;;;16.97;13.60;;;16.30;99.90;;;;;;5051691;28;20412;-73
2021/07/03 06:18:30;;;;;;;13.90;12.50;;;16.40;99.90;;;;;;5051687;28;20482;-73
2021/07/03 06:20:57;;;;;;;13.23;11.83;;;16.50;99.90;;;;;;5052763;28;20448;-73
2021/07/03 06:23:24;;;;;;;15.67;12.40;;;16.60;99.90;;;;;;5051854;28;20558;-73
2021/07/03 06:25:50;;;;;;;15.00;13.50;;;16.70;99.90;;;;;;5053138;28;20405;-73
2021/07/03 06:28:15;;;;;;;15.17;13.60;;;16.70;99.90;;;;;;5055623;28;20747;-73
2021/07/03 06:30:41;;;;;;;13.67;12.20;;;16.90;99.90;;;;;;5056014;28;20176;-73
2021/07/03 06:33:07;;;;;;;13.67;12.33;;;17.00;99.90;;;;;;5055327;28;20474;-72
2021/07/03 06:35:33;;;;;;;14.20;12.80;;;17.10;99.90;;;;;;5066063;28;20589;-73
2021/07/03 06:37:58;;;;;;;15.03;11.23;;;17.20;99.90;;;;;;5055506;28;20168;-72
2021/07/03 06:40:24;;;;;;;13.43;12.03;;;17.30;99.90;;;;;;5055243;28;20703;-73
2021/07/03 06:42:50;;;;;;;15.70;11.43;;;17.50;99.90;;;;;;5055173;28;20267;-73
2021/07/03 06:45:15;;;;;;;14.73;12.03;;;17.70;99.90;;;;;;5055591;28;20171;-73
2021/07/03 06:47:41;;;;;;;12.23;11.07;;;17.80;99.90;;;;;;5068310;28;20194;-72
2021/07/03 06:50:08;;;;;;;11.27;10.17;;;18.00;99.90;;;;;;5076208;28;20170;-73
2021/07/03 06:52:33;;;;;;;12.27;11.07;;;18.20;99.90;;;;;;5075732;28;20166;-73
2021/07/03 06:54:59;;;;;;;11.00;10.00;;;18.30;99.90;;;;;;5075012;28;20508;-73
2021/07/03 06:57:25;;;;;;;12.70;10.83;;;18.50;99.90;;;;;;5075148;28;20151;-72
2021/07/03 06:59:50;;;;;;;11.73;10.50;;;18.60;99.90;;;;;;5075381;28;20196;-73
2021/07/03 07:02:18;;;;;;;11.40;10.20;;;18.60;99.90;;;;;;5075054;28;20490;-73
2021/07/03 07:04:43;;;;;;;10.83;9.80;;;18.70;99.90;;;;;;5061640;28;20304;-73
2021/07/03 07:07:09;;;;;;;10.97;9.93;;;18.80;99.90;;;;;;5055092;28;20448;-73
2021/07/03 07:09:35;;;;;;;10.60;9.60;;;18.90;99.90;;;;;;5054666;28;20157;-73
2021/07/03 07:12:00;;;;;;;12.30;10.83;;;19.00;99.90;;;;;;5054775;28;20200;-73
2021/07/03 07:14:26;;;;;;;12.27;9.90;;;19.10;99.90;;;;;;5055315;28;20156;-73
2021/07/03 07:16:52;;;;;;;12.77;10.80;;;19.30;99.90;;;;;;5054813;28;20253;-73
2021/07/03 07:19:18;;;;;;;10.20;9.33;;;19.40;99.90;;;;;;5055167;28;20165;-73
2021/07/03 07:21:43;;;;;;;11.10;10.00;;;19.50;99.90;;;;;;5068280;28;20914;-73
2021/07/03 07:24:09;;;;;;;11.40;10.17;;;19.70;99.90;;;;;;5074571;28;20244;-73
2021/07/03 07:26:35;;;;;;;11.40;9.97;;;19.90;99.90;;;;;;5074998;28;20166;-72
2021/07/03 07:29:00;;;;;;;14.30;11.03;;;20.10;99.90;;;;;;5074554;28;20581;-72
2021/07/03 07:31:26;;;;;;;13.03;8.93;;;20.60;99.90;;;;;;5074533;28;20148;-72
2021/07/03 07:33:51;;;;;;;13.03;8.63;;;21.30;99.90;;;;;;5069769;28;20183;-72
2021/07/03 07:36:17;;;;;;;9.10;7.90;;;22.30;99.90;;;;;;5074472;28;20238;-73
2021/07/03 07:38:43;;;;;;;7.83;6.83;;;23.60;99.90;;;;;;5073507;28;20244;-73
2021/07/03 07:41:09;;;;;;;12.30;7.43;;;24.90;99.90;;;;;;5074248;28;20156;-73
2021/07/03 07:43:35;;;;;;;7.90;6.93;;;26.20;99.90;;;;;;5074306;28;20977;-73
2021/07/03 07:46:01;;;;;;;7.40;6.70;;;27.60;96.10;;;;;;5074526;28;20548;-74
2021/07/03 07:48:28;;;;;;;7.03;6.33;;;28.80;91.10;;;;;;5074720;28;20156;-74
2021/07/03 07:50:57;;;;;;;7.17;6.43;;;29.70;83.90;;;;;;5074117;28;20588;-74
2021/07/03 07:53:23;;;;;;;7.23;6.60;;;30.60;76.70;;;;;;5074323;28;20889;-74
2021/07/03 07:55:49;;;;;;;8.00;6.40;;;31.50;67.80;;;;;;5073211;28;20445;-74
2021/07/03 07:58:16;;;;;;;6.27;4.90;;;32.10;66.20;;;;;;5073753;28;20462;-74
2021/07/03 08:00:42;;;;;;;8.33;6.90;;;32.80;62.30;;;;;;5074008;28;20481;-75
2021/07/03 08:03:07;;;;;;;7.13;6.53;;;33.30;55.60;;;;;;5072779;28;20417;-75
2021/07/03 08:05:34;;;;;;;6.80;6.03;;;33.80;53.80;;;;;;5054047;28;20493;-74
2021/07/03 08:08:00;;;;;;;6.10;5.50;;;34.30;53.30;;;;;;5053956;28;20251;-75
2021/07/03 08:10:27;;;;;;;6.37;5.73;;;34.80;49.60;;;;;;5053784;28;20445;-75
2021/07/03 08:12:54;;;;;;;4.60;4.20;;;35.20;47.80;;;;;;5068252;28;20331;-75
2021/07/03 08:15:20;;;;;;;5.57;4.73;;;35.30;48.00;;;;;;5074723;28;20944;-75
2021/07/03 08:17:45;;;;;;;4.97;4.47;;;35.80;46.90;;;;;;5073839;28;20390;-75
2021/07/03 08:20:14;;;;;;;4.73;3.93;;;36.10;47.00;;;;;;5073526;28;20162;-75
2021/07/03 08:22:40;;;;;;;4.53;4.23;;;36.60;43.30;;;;;;5073376;28;20151;-75
2021/07/03 08:25:06;;;;;;;4.60;4.30;;;37.30;42.40;;;;;;5073225;28;20445;-74
2021/07/03 08:27:31;;;;;;;4.20;3.80;;;38.10;41.40;;;;;;5073498;28;20502;-74
2021/07/03 08:29:57;;;;;;;4.83;4.33;;;38.70;38.90;;;;;;5072819;28;20409;-73
2021/07/03 08:32:22;;;;;;;4.60;4.23;;;39.50;37.30;;;;;;5073427;28;20170;-73
2021/07/03 08:34:48;;;;;;;6.90;4.47;;;39.90;38.40;;;;;;5065877;28;20208;-73
2021/07/03 08:37:14;;;;;;;4.20;3.90;;;40.70;35.30;;;;;;5072478;28;20700;-73
2021/07/03 08:39:39;;;;;;;4.60;4.20;;;41.10;34.10;;;;;;5073646;28;20183;-73
2021/07/03 08:42:06;;;;;;;4.25;3.85;;;41.40;32.40;;;;;;5072981;28;20162;-73
2021/07/03 08:44:31;;;;;;;5.00;4.47;;;41.80;31.40;;;;;;5073769;28;20207;-73
2021/07/03 08:46:57;;;;;;;6.80;4.25;;;42.10;32.70;;;;;;5058507;28;20217;-73
2021/07/03 08:49:23;;;;;;;4.40;4.00;;;42.50;30.00;;;;;;5052263;28;20242;-73
2021/07/03 08:51:50;;;;;;;4.65;4.15;;;43.10;30.00;;;;;;5053051;28;20163;-74
2021/07/03 08:54:15;;;;;;;4.05;3.75;;;43.40;28.50;;;;;;5052984;28;20274;-74
2021/07/03 08:56:41;;;;;;;4.38;4.07;;;43.60;27.70;;;;;;5053043;28;20206;-74
2021/07/03 08:59:15;;;;;;;3.88;3.58;;;43.90;27.70;;;;;;5052809;28;20196;-74
2021/07/03 09:02:01;;;;;;;4.13;3.83;;;43.90;27.90;;;;;;5052746;28;20162;-73
2021/07/03 09:04:42;;;;;;;3.55;3.35;;;44.20;28.00;;;;;;5052137;28;20286;-74
2021/07/03 09:07:11;;;;;;;4.18;3.88;;;44.30;28.00;;;;;;5052592;28;20152;-74
2021/07/03 09:09:36;;;;;;;5.75;4.30;;;44.40;27.30;;;;;;5052507;28;20171;-74
2021/07/03 09:12:02;;;;;;;4.45;3.95;;;44.70;27.30;;;;;;5054408;28;20171;-74
2021/07/03 09:14:28;;;;;;;4.75;4.35;;;44.90;27.70;;;;;;5052588;28;20205;-75
2021/07/03 09:16:58;;;;;;;5.88;5.47;;;44.80;27.10;;;;;;5052590;28;20576;-75
2021/07/03 09:19:28;;;;;;;5.30;4.97;;;44.70;27.40;;;;;;5053014;28;20671;-74
2021/07/03 09:21:55;;;;;;;3.67;3.45;;;44.20;27.40;;;;;;5052664;28;20159;-74
2021/07/03 09:24:20;;;;;;;4.15;3.85;;;43.40;27.70;;;;;;5053335;28;20192;-74
2021/07/03 09:27:03;;;;;;;3.80;3.50;;;43.10;29.50;;;;;;5053124;28;20164;-74
2021/07/03 09:29:29;;;;;;;5.25;4.60;;;43.20;29.60;;;;;;5052535;28;20163;-75
2021/07/03 09:31:54;;;;;;;4.50;4.10;;;43.00;27.90;;;;;;5052224;28;20493;-75
2021/07/03 09:34:21;;;;;;;4.10;3.70;;;42.70;27.10;;;;;;5056737;28;20175;-75
2021/07/03 09:36:47;;;;;;;4.57;4.18;;;42.00;28.50;;;;;;5071466;28;20183;-75
2021/07/03 09:39:22;;;;;;;7.13;4.10;;;41.60;28.60;;;;;;5073197;28;20211;-75
2021/07/03 09:41:48;;;;;;;3.88;3.58;;;41.00;30.50;;;;;;5073170;28;20158;-75
2021/07/03 09:44:13;;;;;;;4.28;3.38;;;40.80;31.30;;;;;;5072450;28;20215;-75
2021/07/03 09:46:47;;;;;;;3.45;3.15;;;40.60;30.10;;;;;;5071968;28;20187;-75
2021/07/03 09:49:16;;;;;;;4.53;3.75;;;40.20;30.90;;;;;;5072380;28;20564;-75
2021/07/03 09:54:40;;;;;;;4.25;3.95;;;39.80;32.10;;;;;;5077518;27;21071;-76
2021/07/03 09:57:06;;;;;;;3.55;3.17;;;39.20;33.40;;;;;;5069781;28;20182;-77
2021/07/03 09:59:33;;;;;;;6.97;4.72;;;38.80;32.90;;;;;;5069952;28;20642;-77
2021/07/03 10:02:01;;;;;;;3.40;3.10;;;38.30;31.50;;;;;;5069255;28;20194;-77
2021/07/03 10:04:26;;;;;;;3.60;3.30;;;37.80;33.50;;;;;;5069795;28;20198;-77
2021/07/03 10:09:57;;;;;;;4.60;4.20;;;36.70;35.00;;;;;;5069761;28;20527;-75
2021/07/03 10:12:26;;;;;;;3.80;3.47;;;36.10;35.00;;;;;;5050640;28;20421;-74
2021/07/03 10:14:52;;;;;;;3.80;3.50;;;35.50;37.30;;;;;;5049455;28;20394;-75
2021/07/03 10:20:18;;;;;;;4.97;4.50;;;35.10;38.50;;;;;;5090042;27;20592;-75
2021/07/03 10:22:53;;;;;;;4.43;3.97;;;34.70;36.00;;;;;;5089920;28;20800;-75
2021/07/03 10:25:19;;;;;;;3.50;3.20;;;34.60;39.60;;;;;;5089680;28;20303;-75
2021/07/03 10:27:52;;;;;;;4.30;3.90;;;34.50;40.90;;;;;;5083895;28;20410;-75
2021/07/03 10:30:24;;;;;;;4.47;4.07;;;34.40;39.70;;;;;;5069700;28;20759;-75
2021/07/03 10:32:56;;;;;;;5.73;4.10;;;34.20;38.50;;;;;;5079775;28;20476;-75
2021/07/03 10:35:22;;;;;;;4.73;4.23;;;34.00;40.40;;;;;;5084018;28;20418;-75
2021/07/03 10:37:49;;;;;;;5.50;5.00;;;33.70;40.70;;;;;;5069562;28;20914;-75
2021/07/03 10:40:17;;;;;;;4.57;4.03;;;33.30;41.00;;;;;;5069453;28;20515;-77
2021/07/03 10:42:43;;;;;;;3.60;3.30;;;32.90;41.50;;;;;;5069633;28;20413;-77
2021/07/03 10:45:12;;;;;;;3.70;3.40;;;32.50;43.60;;;;;;5078044;28;20405;-76
2021/07/03 10:47:37;;;;;;;3.70;3.40;;;32.20;42.80;;;;;;5090249;28;20159;-77
2021/07/03 10:50:18;;;;;;;3.50;3.20;;;31.80;42.90;;;;;;5090548;28;20813;-77
2021/07/03 10:52:44;;;;;;;5.20;4.17;;;31.40;42.20;;;;;;5090215;28;20182;-77
2021/07/03 10:55:11;;;;;;;3.50;3.20;;;31.10;42.70;;;;;;5089570;28;20429;-77
2021/07/03 10:57:45;;;;;;;4.17;3.77;;;30.80;44.50;;;;;;5084955;28;20258;-77
2021/07/03 11:00:12;;;;;;;4.40;3.80;;;30.50;43.90;;;;;;5069160;28;20398;-77
2021/07/03 11:02:39;;;;;;;5.90;3.50;;;30.10;43.70;;;;;;5081791;28;20474;-77
2021/07/03 11:05:13;;;;;;;3.63;3.33;;;29.70;45.60;;;;;;5089773;28;20470;-77
2021/07/03 11:07:39;;;;;;;4.53;3.63;;;29.40;46.10;;;;;;5089435;28;20416;-77
2021/07/03 11:10:15;;;;;;;4.30;3.90;;;29.10;45.50;;;;;;5089314;28;20394;-77
2021/07/03 11:12:46;;;;;;;4.70;3.87;;;28.80;46.00;;;;;;5089709;28;20953;-77
2021/07/03 11:15:15;;;;;;;5.13;4.13;;;28.50;44.60;;;;;;5089528;28;20423;-77
2021/07/03 11:17:41;;;;;;;5.10;4.67;;;28.20;45.10;;;;;;5089205;28;20452;-77
2021/07/03 11:20:07;;;;;;;4.33;3.87;;;27.90;47.00;;;;;;5087350;28;20436;-77
2021/07/03 11:22:33;;;;;;;4.70;3.87;;;27.70;47.50;;;;;;5088837;28;20393;-77
2021/07/03 11:25:00;;;;;;;4.30;4.00;;;27.60;49.50;;;;;;5088464;28;20414;-77
2021/07/03 11:30:17;;;;;;;5.20;4.50;;;27.50;49.40;;;;;;5089796;27;20499;-75
2021/07/03 11:32:52;;;;;;;4.33;4.00;;;27.50;51.40;;;;;;5090417;28;20437;-75
2021/07/03 11:35:19;;;;;;;4.17;3.87;;;27.40;53.20;;;;;;5088989;28;20407;-75
2021/07/03 11:37:45;;;;;;;4.53;4.13;;;27.40;52.60;;;;;;5090168;28;20377;-75
2021/07/03 11:40:16;;;;;;;3.70;3.40;;;27.40;51.00;;;;;;5089658;28;20388;-75
2021/07/03 11:42:45;;;;;;;4.80;4.43;;;27.40;52.80;;;;;;5090039;28;20500;-75
2021/07/03 11:45:13;;;;;;;4.27;3.77;;;27.20;49.40;;;;;;5089711;28;20381;-75
2021/07/03 11:50:43;;;;;;;4.47;4.17;;;27.10;53.20;;;;;;5114172;27;20906;-74
2021/07/03 11:53:12;;;;;;;5.20;4.70;;;27.10;53.90;;;;;;5081088;28;20434;-74
2021/07/03 11:55:41;;;;;;;4.60;4.20;;;27.00;55.10;;;;;;5069763;28;20453;-74
2021/07/03 11:58:14;;;;;;;4.10;3.80;;;27.00;54.70;;;;;;5081468;28;20413;-74
2021/07/03 12:00:46;;;;;;;5.17;4.67;;;27.10;52.30;;;;;;5070267;28;20398;-74
2021/07/03 12:03:13;;;;;;;4.47;4.07;;;27.10;51.70;;;;;;5069562;28;20489;-74
2021/07/03 12:05:48;;;;;;;4.90;4.50;;;27.00;52.10;;;;;;5069957;28;20395;-74
2021/07/03 12:08:15;;;;;;;5.20;4.00;;;26.90;53.20;;;;;;5069611;28;20576;-74
2021/07/03 12:10:51;;;;;;;4.00;3.70;;;26.80;54.60;;;;;;5056016;28;20942;-74
2021/07/03 12:16:11;;;;;;;4.53;4.13;;;26.80;55.30;;;;;;5121427;27;20923;-73
2021/07/03 12:18:46;;;;;;;3.97;3.67;;;26.70;54.40;;;;;;5089959;28;20928;-75
2021/07/03 12:21:17;;;;;;;4.50;4.20;;;26.60;55.60;;;;;;5090157;28;20894;-74
2021/07/03 12:26:49;;;;;;;5.00;4.50;;;26.60;54.00;;;;;;5109285;27;20520;-75
2021/07/03 12:29:23;;;;;;;4.70;3.93;;;26.50;55.40;;;;;;5089144;28;20409;-75
2021/07/03 12:31:49;;;;;;;8.83;4.43;;;26.60;53.70;;;;;;5089310;28;20495;-75
2021/07/03 12:37:11;;;;;;;3.90;3.60;;;26.60;52.70;;;;;;5121587;27;20549;-75
2021/07/03 12:39:38;;;;;;;5.13;4.73;;;26.70;56.10;;;;;;5089951;28;20480;-75
2021/07/03 12:42:07;;;;;;;4.93;4.43;;;26.60;54.40;;;;;;5089581;28;20421;-75
2021/07/03 12:44:49;;;;;;;3.87;3.57;;;26.60;56.90;;;;;;5077728;28;20409;-75
2021/07/03 12:50:21;;;;;;;5.63;3.40;;;26.60;57.60;;;;;;5129144;27;20593;-76
2021/07/03 12:52:47;;;;;;;5.13;4.23;;;26.50;57.70;;;;;;5109998;28;20411;-77
2021/07/03 12:55:13;;;;;;;4.03;3.73;;;26.50;56.00;;;;;;5109945;28;20901;-76
2021/07/03 13:00:47;;;;;;;5.63;4.37;;;26.50;55.90;;;;;;5114538;27;20529;-75
2021/07/03 13:03:13;;;;;;;4.93;4.20;;;26.40;55.50;;;;;;5069718;28;20445;-75